createdAt,value
2023-09-28T00:04:18.566Z,67.93
2023-09-28T00:07:20.227Z,67.94
2023-09-28T00:10:22.130Z,67.95
2023-09-28T00:13:23.689Z,68.14
2023-09-28T00:16:25.505Z,68.14
2023-09-28T00:19:27.588Z,68.25
2023-09-28T00:22:29.160Z,68.42
2023-09-28T00:25:30.777Z,68.26
2023-09-28T00:28:32.904Z,68.34
2023-09-28T00:31:34.503Z,68.38
2023-09-28T00:34:36.211Z,68.33
2023-09-28T00:37:38.506Z,68.72
2023-09-28T00:40:40.476Z,68.54
2023-09-28T00:43:43.341Z,68.55
2023-09-28T00:46:45.170Z,68.55
2023-09-28T00:49:47.674Z,68.71
2023-09-28T00:52:54.052Z,68.77
2023-09-28T00:55:56.862Z,68.77
2023-09-28T00:59:00.113Z,68.77
2023-09-28T01:02:01.856Z,68.95
2023-09-28T01:05:10.397Z,68.72
2023-09-28T01:08:19.096Z,68.82
2023-09-28T01:11:20.962Z,69.07
2023-09-28T01:14:23.102Z,68.81
2023-09-28T01:17:24.659Z,68.78
2023-09-28T01:20:35.844Z,68.91
2023-09-28T01:23:38.253Z,68.88
2023-09-28T01:26:39.961Z,68.98
2023-09-28T01:29:41.701Z,69.05
2023-09-28T01:32:43.525Z,68.87
2023-09-28T01:35:45.845Z,68.85
2023-09-28T01:38:55.223Z,68.95
2023-09-28T01:41:56.951Z,69.03
2023-09-28T01:44:58.554Z,69.07
2023-09-28T01:48:01.020Z,68.94
2023-09-28T01:51:02.738Z,69.00
2023-09-28T01:54:04.468Z,68.84
2023-09-28T01:57:06.105Z,68.86
2023-09-28T02:00:16.117Z,68.90
2023-09-28T02:03:17.770Z,68.91
2023-09-28T02:06:19.485Z,69.00
2023-09-28T02:09:21.286Z,69.03
2023-09-28T02:12:23.058Z,69.00
2023-09-28T02:15:24.767Z,68.95
2023-09-28T02:18:26.390Z,69.13
2023-09-28T02:21:28.378Z,69.07
2023-09-28T02:24:30.005Z,69.01
2023-09-28T02:27:31.632Z,69.26
2023-09-28T02:30:34.058Z,69.20
2023-09-28T02:33:36.822Z,69.06
2023-09-28T02:36:40.026Z,69.06
2023-09-28T02:39:42.359Z,69.18
2023-09-28T02:42:44.344Z,69.15
2023-09-28T02:45:45.930Z,69.15
2023-09-28T02:48:47.631Z,69.13
2023-09-28T02:51:50.888Z,69.33
2023-09-28T02:54:53.246Z,69.33
2023-09-28T02:57:54.849Z,69.30
2023-09-28T03:00:57.512Z,69.25
2023-09-28T03:04:00.921Z,69.36
2023-09-28T03:07:02.812Z,69.36
2023-09-28T03:10:07.304Z,69.37
2023-09-28T03:13:09.426Z,69.37
2023-09-28T03:16:12.134Z,69.29
2023-09-28T03:19:14.638Z,69.15
2023-09-28T03:22:16.330Z,69.50
2023-09-28T03:25:19.179Z,69.34
2023-09-28T03:28:21.420Z,69.45
2023-09-28T03:31:27.606Z,69.40
2023-09-28T03:34:29.370Z,69.57
2023-09-28T03:37:30.980Z,69.41
2023-09-28T03:40:35.595Z,69.31
2023-09-28T03:43:37.274Z,69.41
2023-09-28T03:46:38.961Z,69.41
2023-09-28T03:49:40.769Z,69.28
2023-09-28T03:52:44.354Z,69.53
2023-09-28T03:55:49.836Z,69.59
2023-09-28T03:58:51.453Z,69.36
2023-09-28T04:01:53.168Z,69.53
2023-09-28T04:04:56.781Z,69.46
2023-09-28T04:07:58.566Z,69.53
2023-09-28T04:11:00.363Z,69.39
2023-09-28T04:14:02.487Z,69.46
2023-09-28T04:17:04.187Z,69.45
2023-09-28T04:20:06.811Z,69.42
2023-09-28T04:23:09.316Z,69.37
2023-09-28T04:26:11.014Z,69.47
2023-09-28T04:29:13.278Z,69.37
2023-09-28T04:32:15.032Z,69.54
2023-09-28T04:35:16.750Z,69.43
2023-09-28T04:38:18.401Z,69.58
2023-09-28T04:41:20.079Z,69.67
2023-09-28T04:44:22.065Z,69.64
2023-09-28T04:47:23.837Z,69.74
2023-09-28T04:50:25.554Z,69.76
2023-09-28T04:53:27.235Z,69.77
2023-09-28T04:56:29.055Z,69.63
2023-09-28T04:59:31.059Z,69.78
2023-09-28T05:02:33.070Z,69.84
2023-09-28T05:05:34.846Z,69.80
2023-09-28T05:08:36.517Z,69.93
2023-09-28T05:11:38.235Z,69.96
2023-09-28T05:14:41.629Z,69.96
2023-09-28T05:17:43.424Z,69.85
2023-09-28T05:20:45.113Z,69.97
2023-09-28T05:23:46.797Z,69.91
2023-09-28T05:26:49.470Z,69.90
2023-09-28T05:29:51.177Z,70.11
2023-09-28T05:32:53.453Z,70.08
2023-09-28T05:35:55.232Z,69.91
2023-09-28T05:38:57.003Z,70.16
2023-09-28T05:41:58.646Z,70.14
2023-09-28T05:45:00.943Z,70.30
2023-09-28T05:48:03.385Z,70.47
2023-09-28T05:51:05.044Z,70.39
2023-09-28T05:54:06.691Z,70.58
2023-09-28T05:57:08.340Z,70.67
2023-09-28T06:00:10.731Z,70.73
2023-09-28T06:03:13.446Z,70.85
2023-09-28T06:06:18.608Z,70.91
2023-09-28T06:09:20.394Z,71.03
2023-09-28T06:12:22.493Z,70.97
2023-09-28T06:15:24.519Z,71.22
2023-09-28T06:18:26.126Z,71.32
2023-09-28T06:21:27.689Z,71.56
2023-09-28T06:24:29.549Z,71.73
2023-09-28T06:27:31.210Z,71.75
2023-09-28T06:30:32.966Z,72.11
2023-09-28T06:33:34.610Z,72.00
2023-09-28T06:36:41.865Z,72.40
2023-09-28T06:39:44.269Z,72.34
2023-09-28T06:42:45.912Z,72.53
2023-09-28T06:45:47.567Z,72.75
2023-09-28T06:48:51.370Z,72.85
2023-09-28T06:51:53.623Z,72.95
2023-09-28T06:54:55.143Z,73.26
2023-09-28T06:57:56.889Z,73.16
2023-09-28T07:01:01.381Z,73.19
2023-09-28T07:04:03.167Z,73.35
2023-09-28T07:07:08.429Z,73.19
2023-09-28T07:10:12.625Z,73.34
2023-09-28T07:13:14.416Z,73.36
2023-09-28T07:16:16.142Z,73.56
2023-09-28T07:19:19.381Z,73.55
2023-09-28T07:22:21.682Z,73.56
2023-09-28T07:25:26.416Z,73.59
2023-09-28T07:28:29.301Z,73.66
2023-09-28T07:31:31.669Z,73.75
2023-09-28T07:34:33.561Z,73.69
2023-09-28T07:37:36.051Z,73.61
2023-09-28T07:40:47.854Z,73.65
2023-09-28T07:43:50.423Z,73.55
2023-09-28T07:46:52.775Z,73.48
2023-09-28T07:49:54.492Z,73.26
2023-09-28T07:52:56.310Z,73.10
2023-09-28T07:55:58.421Z,73.10
2023-09-28T07:59:00.787Z,72.94
2023-09-28T08:02:04.977Z,73.03
2023-09-28T08:05:07.170Z,73.08
2023-09-28T08:08:15.917Z,72.96
2023-09-28T08:11:19.407Z,72.83
2023-09-28T08:14:22.308Z,72.64
2023-09-28T08:17:24.224Z,72.47
2023-09-28T08:20:27.008Z,72.29
2023-09-28T08:23:29.069Z,72.04
2023-09-28T08:26:34.524Z,71.98
2023-09-28T08:29:37.734Z,71.84
2023-09-28T08:32:39.757Z,71.57
2023-09-28T08:35:47.427Z,71.35
2023-09-28T08:38:49.283Z,71.34
2023-09-28T08:41:56.091Z,71.14
2023-09-28T08:45:02.908Z,70.97
2023-09-28T08:48:09.204Z,70.69
2023-09-28T08:51:12.168Z,70.44
2023-09-28T08:54:16.357Z,70.30
2023-09-28T08:57:18.448Z,70.10
2023-09-28T09:00:24.244Z,70.01
2023-09-28T09:03:31.986Z,69.72
2023-09-28T09:10:38.757Z,69.46
2023-09-28T09:13:51.587Z,68.90
2023-09-28T09:16:54.875Z,68.59
2023-09-28T09:19:56.513Z,68.27
2023-09-28T09:23:14.687Z,67.94
2023-09-28T09:26:19.535Z,67.54
2023-09-28T09:29:21.381Z,67.17
2023-09-28T09:32:23.272Z,67.04
2023-09-28T09:35:28.244Z,66.86
2023-09-28T09:38:31.856Z,66.55
2023-09-28T09:41:46.671Z,66.39
2023-09-28T09:44:49.065Z,66.17
2023-09-28T09:47:58.717Z,65.81
2023-09-28T09:51:02.667Z,65.43
2023-09-28T09:54:05.238Z,64.93
2023-09-28T09:57:09.841Z,64.89
2023-09-28T10:00:16.446Z,64.53
2023-09-28T10:03:18.461Z,63.98
2023-09-28T10:06:23.171Z,63.81
2023-09-28T10:09:28.091Z,63.10
2023-09-28T10:12:30.926Z,62.75
2023-09-28T10:15:34.051Z,62.16
2023-09-28T10:18:38.049Z,61.72
2023-09-28T10:21:39.912Z,61.65
2023-09-28T10:24:48.634Z,61.23
2023-09-28T10:28:12.354Z,61.00
2023-09-28T10:31:18.756Z,60.45
2023-09-28T10:34:21.250Z,60.24
2023-09-28T10:37:24.243Z,59.62
2023-09-28T10:40:37.038Z,59.36
2023-09-28T10:43:54.764Z,58.93
2023-09-28T10:46:56.518Z,58.59
2023-09-28T10:49:59.950Z,58.51
2023-09-28T10:53:01.869Z,57.57
2023-09-28T10:56:06.491Z,56.75
2023-09-28T10:59:09.926Z,56.13
2023-09-28T11:02:11.756Z,55.63
2023-09-28T11:05:21.453Z,55.32
2023-09-28T11:08:25.803Z,54.83
2023-09-28T11:11:30.099Z,54.31
2023-09-28T11:17:38.023Z,53.88
2023-09-28T11:20:39.847Z,53.59
2023-09-28T11:23:41.800Z,53.46
2023-09-28T11:26:43.739Z,53.12
2023-09-28T11:29:45.480Z,52.75
2023-09-28T11:32:52.243Z,52.33
2023-09-28T11:36:00.120Z,52.09
2023-09-28T11:39:01.885Z,52.18
2023-09-28T11:42:03.872Z,52.00
2023-09-28T11:45:07.793Z,52.13
2023-09-28T11:48:12.889Z,51.95
2023-09-28T11:55:18.618Z,51.31
2023-09-28T11:58:23.127Z,51.26
2023-09-28T12:01:25.610Z,50.99
2023-09-28T12:04:27.725Z,50.76
2023-09-28T12:07:37.856Z,50.47
2023-09-28T12:10:39.935Z,50.37
2023-09-28T12:13:41.755Z,50.13
2023-09-28T12:17:33.079Z,49.86
2023-09-28T12:37:43.837Z,49.17
2023-09-28T12:40:45.790Z,49.03
2023-09-28T12:43:52.634Z,49.12
2023-09-28T12:46:56.953Z,49.15
2023-09-28T12:49:59.986Z,48.91
2023-09-28T12:53:06.409Z,48.67
2023-09-28T12:56:08.212Z,48.70
2023-09-28T12:59:10.085Z,48.29
2023-09-28T13:02:12.688Z,48.05
2023-09-28T13:05:16.330Z,48.19
2023-09-28T13:08:18.114Z,48.17
2023-09-28T13:11:19.965Z,47.97
2023-09-28T13:14:27.452Z,47.78
2023-09-28T13:17:31.039Z,47.83
2023-09-28T13:20:34.428Z,47.91
2023-09-28T13:23:36.341Z,47.91
2023-09-28T13:26:38.705Z,47.80
2023-09-28T13:29:41.098Z,48.09
2023-09-28T13:32:45.524Z,48.03
2023-09-28T13:35:47.459Z,47.98
2023-09-28T13:38:52.144Z,47.98
2023-09-28T13:42:04.645Z,47.75
2023-09-28T13:45:07.153Z,47.77
2023-09-28T13:48:12.016Z,47.84
2023-09-28T13:51:15.124Z,47.96
2023-09-28T13:54:22.224Z,48.44
2023-09-28T13:57:24.732Z,48.19
2023-09-28T14:00:36.043Z,48.19
2023-09-28T14:03:41.444Z,48.42
2023-09-28T14:06:44.383Z,48.79
2023-09-28T14:09:56.223Z,48.73
2023-09-28T14:13:04.673Z,48.46
2023-09-28T14:16:08.163Z,48.35
2023-09-28T14:19:13.338Z,48.76
2023-09-28T14:22:17.078Z,49.27
2023-09-28T14:25:22.409Z,49.28
2023-09-28T14:28:25.457Z,49.35
2023-09-28T14:31:29.009Z,49.17
2023-09-28T14:34:31.218Z,49.49
2023-09-28T14:37:33.351Z,49.71
2023-09-28T14:40:35.178Z,50.05
2023-09-28T14:43:36.891Z,50.11
2023-09-28T14:46:38.821Z,50.37
2023-09-28T14:49:40.547Z,50.46
2023-09-28T14:52:42.484Z,50.60
2023-09-28T14:55:44.082Z,50.61
2023-09-28T14:58:45.758Z,50.63
2023-09-28T15:01:47.509Z,50.77
2023-09-28T15:04:49.204Z,51.29
2023-09-28T15:07:51.098Z,51.41
2023-09-28T15:10:55.392Z,51.76
2023-09-28T15:13:57.392Z,51.87
2023-09-28T15:16:59.256Z,52.06
2023-09-28T15:20:05.726Z,52.28
2023-09-28T15:23:07.523Z,52.45
2023-09-28T15:26:09.397Z,52.60
2023-09-28T15:29:11.398Z,52.82
2023-09-28T15:32:14.067Z,52.97
2023-09-28T15:35:15.856Z,53.22
2023-09-28T15:38:17.730Z,53.59
2023-09-28T15:41:36.733Z,53.74
2023-09-28T15:44:38.537Z,54.07
2023-09-28T15:47:42.339Z,54.22
2023-09-28T15:50:44.345Z,54.24
2023-09-28T15:53:46.048Z,54.45
2023-09-28T15:56:47.867Z,54.64
2023-09-28T15:59:49.468Z,54.89
2023-09-28T16:02:51.680Z,54.92
2023-09-28T16:05:53.495Z,55.20
2023-09-28T16:08:55.677Z,55.35
2023-09-28T16:11:59.145Z,55.56
2023-09-28T16:15:02.216Z,55.71
2023-09-28T16:18:06.466Z,55.98
2023-09-28T16:21:09.498Z,56.12
2023-09-28T16:24:11.393Z,56.29
2023-09-28T16:27:15.090Z,56.50
2023-09-28T16:30:17.428Z,56.73
2023-09-28T16:33:19.464Z,56.81
2023-09-28T16:36:22.210Z,57.05
2023-09-28T16:39:25.762Z,57.29
2023-09-28T16:42:28.359Z,57.50
2023-09-28T16:45:30.124Z,57.73
2023-09-28T16:48:32.824Z,57.98
2023-09-28T16:51:35.221Z,58.05
2023-09-28T16:54:38.327Z,58.23
2023-09-28T16:57:41.294Z,58.47
2023-09-28T17:00:44.539Z,58.60
2023-09-28T17:03:47.977Z,58.95
2023-09-28T17:06:51.185Z,59.01
2023-09-28T17:09:53.810Z,59.27
2023-09-28T17:12:55.766Z,59.45
2023-09-28T17:15:57.433Z,59.57
2023-09-28T17:18:59.926Z,59.73
2023-09-28T17:22:04.452Z,59.75
2023-09-28T17:25:09.063Z,60.01
2023-09-28T17:28:11.005Z,60.12
2023-09-28T17:31:16.112Z,60.10
2023-09-28T17:34:18.715Z,60.38
2023-09-28T17:37:20.678Z,60.46
2023-09-28T17:40:23.286Z,60.58
2023-09-28T17:43:33.940Z,60.70
2023-09-28T17:46:38.521Z,60.69
2023-09-28T17:49:41.855Z,60.72
2023-09-28T17:52:44.592Z,60.93
2023-09-28T17:55:53.329Z,61.00
2023-09-28T18:03:21.320Z,61.23
2023-09-28T18:10:48.242Z,61.39
2023-09-28T18:14:15.376Z,61.40
2023-09-28T18:23:26.497Z,61.42
2023-09-28T18:34:27.759Z,61.44
2023-09-28T19:19:06.320Z,62.06
2023-09-28T19:22:09.348Z,62.01
2023-09-28T19:25:12.210Z,62.08
2023-09-28T19:28:22.045Z,62.22
2023-09-28T19:31:29.812Z,62.41
2023-09-28T19:34:32.274Z,62.44
2023-09-28T19:37:35.580Z,62.48
2023-09-28T19:40:38.560Z,62.79
2023-09-28T19:43:43.265Z,62.68
2023-09-28T19:46:45.577Z,62.79
2023-09-28T19:49:48.538Z,63.01
2023-09-28T19:52:51.978Z,63.07
2023-09-28T19:55:55.681Z,63.11
2023-09-28T19:58:58.857Z,63.26
2023-09-28T20:02:03.774Z,63.13
2023-09-28T20:05:06.426Z,63.27
2023-09-28T20:08:11.708Z,63.33
2023-09-28T20:11:16.845Z,63.44
2023-09-28T20:14:18.775Z,63.65
2023-09-28T20:17:21.211Z,63.79
2023-09-28T20:20:23.668Z,63.73
2023-09-28T20:23:25.693Z,63.88
2023-09-28T20:26:27.707Z,63.58
2023-09-28T20:29:29.425Z,63.56
2023-09-28T20:32:32.278Z,63.72
2023-09-28T20:35:34.021Z,63.72
2023-09-28T20:38:36.930Z,63.86
2023-09-28T20:41:38.696Z,63.97
2023-09-28T20:44:40.597Z,63.92
2023-09-28T20:47:43.555Z,64.00
2023-09-28T20:50:47.369Z,64.03
2023-09-28T20:53:49.143Z,64.17
2023-09-28T20:56:51.056Z,64.16
2023-09-28T20:59:58.162Z,64.18
2023-09-28T21:03:02.033Z,64.31
2023-09-28T21:06:07.127Z,64.25
2023-09-28T21:09:13.017Z,64.44
2023-09-28T21:12:19.863Z,64.42
2023-09-28T21:15:21.705Z,64.52
2023-09-28T21:18:29.023Z,64.63
2023-09-28T21:21:30.804Z,64.59
2023-09-28T21:24:32.502Z,64.64
2023-09-28T21:27:34.246Z,64.75
2023-09-28T21:30:35.954Z,64.78
2023-09-28T21:33:37.918Z,64.81
2023-09-28T21:36:39.751Z,64.94
2023-09-28T21:39:41.480Z,64.86
2023-09-28T21:42:43.318Z,64.84
2023-09-28T21:45:45.070Z,64.80
2023-09-28T21:48:49.470Z,64.97
2023-09-28T21:51:51.136Z,64.95
2023-09-28T21:54:53.038Z,64.98
2023-09-28T21:57:54.864Z,65.03
2023-09-28T22:00:56.514Z,65.16
2023-09-28T22:03:58.295Z,64.99
2023-09-28T22:07:00.097Z,65.10
2023-09-28T22:10:01.859Z,65.26
2023-09-28T22:13:03.734Z,65.19
2023-09-28T22:16:05.709Z,65.25
2023-09-28T22:19:07.581Z,65.17
2023-09-28T22:22:09.216Z,65.38
2023-09-28T22:25:11.278Z,65.27
2023-09-28T22:28:12.882Z,65.30
2023-09-28T22:31:14.540Z,65.26
2023-09-28T22:34:16.136Z,65.48
2023-09-28T22:37:17.818Z,65.38
2023-09-28T22:40:28.534Z,65.54
2023-09-28T22:43:30.965Z,65.44
2023-09-28T22:46:32.632Z,65.47
2023-09-28T22:49:34.356Z,65.57
2023-09-28T22:52:36.241Z,65.50
2023-09-28T22:55:37.821Z,65.48
2023-09-28T22:58:39.424Z,65.66
2023-09-28T23:01:41.109Z,65.91
2023-09-28T23:04:42.818Z,65.95
2023-09-28T23:07:44.611Z,66.11
2023-09-28T23:10:46.287Z,65.98
2023-09-28T23:13:47.946Z,66.08
2023-09-28T23:17:00.496Z,66.08
2023-09-28T23:20:02.684Z,66.17
2023-09-28T23:23:05.754Z,66.27
2023-09-28T23:26:10.762Z,66.27
2023-09-28T23:29:15.221Z,66.23
2023-09-28T23:32:16.902Z,66.33
2023-09-28T23:35:20.346Z,66.26
2023-09-28T23:38:22.513Z,66.18
2023-09-28T23:41:24.287Z,66.08
2023-09-28T23:44:26.321Z,66.04
2023-09-28T23:47:28.125Z,66.02
2023-09-28T23:50:33.832Z,66.22
2023-09-28T23:53:35.629Z,66.33
2023-09-28T23:56:38.751Z,66.44
2023-09-28T23:59:40.604Z,66.42
